Time;durP1;ratioP1;P1;durP2;ratioP2;P2;SDS_P1;SDS_P2;PMS_P1;PMS_P2;Temp;Humidity;BMP_temperature;BMP_pressure;BME280_temperature;BME280_humidity;BME280_pressure;Samples;Min_cycle;Max_cycle;Signal;HPM_P1;HPM_P2
2023/01/14 00:02:05;;;;;;;;;;;;;;;8.38;100.00;98237.00;5120402;28;19942;-76
2023/01/14 00:04:32;;;;;;;;;;;;;;;8.39;100.00;98244.72;5118393;28;19951;-77
2023/01/14 00:07:01;;;;;;;;;;;;;;;8.24;100.00;98236.44;5117083;28;19984;-77
2023/01/14 00:09:29;;;;;;;;;;;;;;;8.44;100.00;98236.84;5100911;28;19924;-77
2023/01/14 00:11:56;;;;;;;;;;;;;;;8.22;100.00;98219.94;5102802;28;19919;-77
2023/01/14 00:14:23;;;;;;;;;;;;;;;8.03;100.00;98229.97;5101543;28;19972;-77
2023/01/14 00:16:50;;;;;;;;;;;;;;;7.94;100.00;98239.38;5117267;28;19975;-77
2023/01/14 00:19:18;;;;;;;;;;;;;;;8.21;100.00;98247.56;5101751;28;19935;-77
2023/01/14 00:21:44;;;;;;;;;;;;;;;8.33;100.00;98258.19;5104925;28;19923;-77
2023/01/14 00:24:12;;;;;;;;;;;;;;;8.09;100.00;98244.16;5099091;28;19995;-77
2023/01/14 00:26:39;;;;;;;;;;;;;;;7.98;100.00;98253.78;5107973;28;19925;-77
2023/01/14 00:29:06;;;;;;;;;;;;;;;8.01;100.00;98249.88;5097881;28;19949;-76
2023/01/14 00:31:32;;;;;;;;;;;;;;;8.12;100.00;98254.31;5099784;28;19931;-77
2023/01/14 00:34:00;;;;;;;;;;;;;;;8.02;100.00;98248.81;5098771;28;19920;-77
2023/01/14 00:36:27;;;;;;;;;;;;;;;8.00;100.00;98261.56;5118671;28;19934;-77
2023/01/14 00:38:54;;;;;;;;;;;;;;;8.23;100.00;98260.66;5120904;28;20376;-77
2023/01/14 00:41:23;;;;;;;;;;;;;;;8.22;100.00;98262.50;5101326;28;19927;-77
2023/01/14 00:43:51;;;;;;;;;;;;;;;8.18;100.00;98272.00;5098775;28;19924;-77
2023/01/14 00:46:19;;;;;;;;;;;;;;;8.04;100.00;98265.38;5098578;28;19920;-78
2023/01/14 00:48:45;;;;;;;;;;;;;;;8.09;100.00;98260.13;5102326;28;19924;-78
2023/01/14 00:51:13;;;;;;;;;;;;;;;8.07;100.00;98257.72;5101609;28;19959;-77
2023/01/14 00:53:40;;;;;;;;;;;;;;;8.21;100.00;98266.19;5098122;28;19924;-76
2023/01/14 00:56:08;;;;;;;;;;;;;;;8.33;100.00;98266.97;5089432;28;19924;-77
2023/01/14 00:58:37;;;;;;;;;;;;;;;8.26;100.00;98262.84;5108522;28;19928;-77
2023/01/14 01:01:04;;;;;;;;;;;;;;;7.90;100.00;98258.69;5102038;28;19924;-77
2023/01/14 01:03:31;;;;;;;;;;;;;;;7.92;100.00;98259.28;5099611;28;20014;-77
2023/01/14 01:05:58;;;;;;;;;;;;;;;8.08;100.00;98259.31;5098152;28;20105;-77
2023/01/14 01:08:25;;;;;;;;;;;;;;;8.05;100.00;98258.97;5117473;28;19924;-77
2023/01/14 01:10:53;;;;;;;;;;;;;;;7.88;100.00;98258.13;5101851;28;19924;-77
2023/01/14 01:13:20;;;;;;;;;;;;;;;7.95;100.00;98259.59;5101109;28;19939;-77
2023/01/14 01:15:47;;;;;;;;;;;;;;;7.99;100.00;98254.59;5097971;28;19946;-77
2023/01/14 01:18:14;;;;;;;;;;;;;;;7.84;100.00;98260.47;5098176;28;19928;-77
2023/01/14 01:20:42;;;;;;;;;;;;;;;8.13;100.00;98263.94;5123503;28;19920;-77
2023/01/14 01:23:09;;;;;;;;;;;;;;;7.94;100.00;98262.50;5107163;28;19970;-77
2023/01/14 01:25:36;;;;;;;;;;;;;;;7.86;100.00;98266.34;5106975;28;19924;-77
2023/01/14 01:28:02;;;;;;;;;;;;;;;7.87;100.00;98265.28;5095487;28;19946;-77
2023/01/14 01:30:29;;;;;;;;;;;;;;;7.82;100.00;98281.16;5098868;28;19924;-77
2023/01/14 01:32:57;;;;;;;;;;;;;;;8.07;100.00;98288.81;5097104;28;19928;-77
2023/01/14 01:35:24;;;;;;;;;;;;;;;7.90;100.00;98290.59;5098184;28;19971;-78
2023/01/14 01:37:51;;;;;;;;;;;;;;;8.01;100.00;98281.78;5101410;28;20587;-77
2023/01/14 01:40:18;;;;;;;;;;;;;;;8.04;100.00;98284.78;5100930;28;19919;-77
2023/01/14 01:42:55;;;;;;;;;;;;;;;7.91;100.00;98282.41;5098110;28;19924;-77
2023/01/14 01:45:26;;;;;;;;;;;;;;;7.84;100.00;98286.22;5117146;28;19924;-77
2023/01/14 01:48:02;;;;;;;;;;;;;;;7.75;100.00;98279.66;5101232;28;19975;-77
2023/01/14 01:50:30;;;;;;;;;;;;;;;7.86;100.00;98282.28;5099360;28;19981;-77
2023/01/14 01:52:57;;;;;;;;;;;;;;;7.94;100.00;98283.78;5097116;28;19920;-76
2023/01/14 01:55:24;;;;;;;;;;;;;;;7.94;100.00;98291.75;5092136;28;20248;-77
2023/01/14 01:57:55;;;;;;;;;;;;;;;7.90;100.00;98293.25;5115807;28;19928;-78
2023/01/14 02:00:23;;;;;;;;;;;;;;;7.75;100.00;98274.34;5116017;28;19991;-78
2023/01/14 02:02:51;;;;;;;;;;;;;;;7.77;100.00;98273.06;5100692;28;19949;-77
2023/01/14 02:05:17;;;;;;;;;;;;;;;7.98;100.00;98283.06;5099767;28;19990;-77
2023/01/14 02:07:45;;;;;;;;;;;;;;;7.99;100.00;98286.53;5096900;28;19924;-77
2023/01/14 02:10:12;;;;;;;;;;;;;;;8.06;100.00;98292.53;5115905;28;19931;-77
2023/01/14 02:12:47;;;;;;;;;;;;;;;8.03;100.00;98280.50;5120578;28;19964;-77
2023/01/14 02:15:20;;;;;;;;;;;;;;;8.01;100.00;98295.91;5103350;28;19923;-77
2023/01/14 02:17:53;;;;;;;;;;;;;;;7.98;100.00;98295.56;5098932;28;19920;-78
2023/01/14 02:20:23;;;;;;;;;;;;;;;8.00;100.00;98304.09;5098169;28;19924;-77
2023/01/14 02:23:06;;;;;;;;;;;;;;;7.88;100.00;98293.50;5100949;28;19979;-77
2023/01/14 02:25:45;;;;;;;;;;;;;;;7.98;100.00;98308.88;5089593;28;19931;-77
2023/01/14 02:28:17;;;;;;;;;;;;;;;7.96;100.00;98294.97;5096493;28;19934;-77
2023/01/14 02:30:50;;;;;;;;;;;;;;;7.82;100.00;98291.81;5113356;28;19924;-77
2023/01/14 02:33:23;;;;;;;;;;;;;;;8.03;100.00;98308.94;5098572;28;19924;-77
2023/01/14 02:35:53;;;;;;;;;;;;;;;7.98;100.00;98300.88;5101598;28;19951;-77
2023/01/14 02:38:25;;;;;;;;;;;;;;;7.86;100.00;98302.78;5119178;28;19928;-76
2023/01/14 02:40:54;;;;;;;;;;;;;;;7.80;100.00;98298.41;5119409;28;19924;-76
2023/01/14 02:46:12;;;;;;;;;;;;;;;7.84;100.00;98302.19;5139151;27;19919;-77
2023/01/14 02:48:40;;;;;;;;;;;;;;;7.94;100.00;98305.06;5100844;28;19924;-76
2023/01/14 02:51:07;;;;;;;;;;;;;;;7.63;100.00;98295.66;5100473;28;19930;-76
2023/01/14 02:53:34;;;;;;;;;;;;;;;7.53;100.00;98308.72;5121576;28;19924;-76
2023/01/14 02:56:00;;;;;;;;;;;;;;;7.74;100.00;98296.66;5092651;28;19924;-76
2023/01/14 02:58:51;;;;;;;;;;;;;;;7.51;100.00;98290.38;5120222;28;19991;-76
2023/01/14 03:01:27;;;;;;;;;;;;;;;7.61;100.00;98295.88;5092862;28;19923;-76
2023/01/14 03:04:03;;;;;;;;;;;;;;;7.73;100.00;98293.22;5118467;28;20027;-76
2023/01/14 03:06:36;;;;;;;;;;;;;;;7.77;100.00;98296.22;5102166;28;19924;-76
2023/01/14 03:09:04;;;;;;;;;;;;;;;7.78;100.00;98297.81;5103643;28;19924;-77
2023/01/14 03:11:35;;;;;;;;;;;;;;;7.84;100.00;98294.22;5101560;28;19924;-76
2023/01/14 03:14:03;;;;;;;;;;;;;;;7.80;100.00;98301.06;5100321;28;19950;-77
2023/01/14 03:16:34;;;;;;;;;;;;;;;7.70;100.00;98314.94;5120455;28;19927;-76
2023/01/14 03:19:03;;;;;;;;;;;;;;;7.75;100.00;98308.91;5103238;28;19924;-77
2023/01/14 03:21:32;;;;;;;;;;;;;;;7.71;100.00;98313.88;5101237;28;19923;-77
2023/01/14 03:24:05;;;;;;;;;;;;;;;7.64;100.00;98315.06;5118150;28;19928;-77
2023/01/14 03:26:33;;;;;;;;;;;;;;;7.76;100.00;98305.22;5093500;28;19924;-76
2023/01/14 03:29:02;;;;;;;;;;;;;;;7.57;100.00;98308.03;5103151;28;19924;-76
2023/01/14 03:31:30;;;;;;;;;;;;;;;7.76;100.00;98307.88;5118392;28;19923;-77
2023/01/14 03:33:59;;;;;;;;;;;;;;;7.86;100.00;98313.41;5098525;28;19954;-77
2023/01/14 03:36:27;;;;;;;;;;;;;;;7.53;100.00;98320.16;5100733;28;19926;-77
2023/01/14 03:38:56;;;;;;;;;;;;;;;7.53;100.00;98319.34;5121799;28;20002;-76
2023/01/14 03:44:05;;;;;;;;;;;;;;;7.58;100.00;98322.94;5098606;28;19932;-77
2023/01/14 03:46:31;;;;;;;;;;;;;;;7.63;100.00;98324.09;5119869;28;19983;-76
2023/01/14 03:48:59;;;;;;;;;;;;;;;7.46;100.00;98316.81;5102923;28;20014;-76
2023/01/14 03:51:30;;;;;;;;;;;;;;;7.41;100.00;98319.38;5119178;28;19919;-77
2023/01/14 03:54:02;;;;;;;;;;;;;;;7.66;100.00;98323.63;5098601;28;19931;-76
2023/01/14 03:56:34;;;;;;;;;;;;;;;7.43;100.00;98324.44;5092120;28;19931;-76
2023/01/14 03:59:03;;;;;;;;;;;;;;;7.58;100.00;98322.16;5101973;28;19924;-77
2023/01/14 04:01:33;;;;;;;;;;;;;;;7.55;100.00;98318.06;5100353;28;20301;-77
2023/01/14 04:04:01;;;;;;;;;;;;;;;7.61;100.00;98311.81;5116003;28;19924;-77
2023/01/14 04:06:27;;;;;;;;;;;;;;;7.65;100.00;98311.34;5117499;28;19924;-77
2023/01/14 04:08:54;;;;;;;;;;;;;;;7.58;100.00;98309.63;5101033;28;19931;-76
2023/01/14 04:11:20;;;;;;;;;;;;;;;7.55;100.00;98320.72;5118537;28;19924;-77
2023/01/14 04:16:31;;;;;;;;;;;;;;;7.61;100.00;98333.09;5099280;28;19988;-77
2023/01/14 04:18:57;;;;;;;;;;;;;;;7.73;100.00;98334.94;5119081;28;20045;-77
2023/01/14 04:21:28;;;;;;;;;;;;;;;7.66;100.00;98347.53;5099846;28;19923;-77
2023/01/14 04:23:54;;;;;;;;;;;;;;;7.72;100.00;98326.16;5097447;28;19924;-76
2023/01/14 04:26:21;;;;;;;;;;;;;;;7.53;100.00;98306.88;5107901;28;19950;-78
2023/01/14 04:28:47;;;;;;;;;;;;;;;7.45;100.00;98315.22;5100945;28;19976;-77
2023/01/14 04:31:14;;;;;;;;;;;;;;;7.56;100.00;98305.59;5027321;28;2084690;-77
2023/01/14 04:33:40;;;;;;;;;;;;;;;7.54;100.00;98300.53;5116541;28;20608;-77
2023/01/14 04:36:07;;;;;;;;;;;;;;;7.35;100.00;98298.25;5116353;28;19923;-77
2023/01/14 04:38:34;;;;;;;;;;;;;;;7.53;100.00;98293.59;5100491;28;20109;-77
2023/01/14 04:41:01;;;;;;;;;;;;;;;7.49;100.00;98311.03;5119859;28;19933;-77
2023/01/14 04:43:26;;;;;;;;;;;;;;;7.61;100.00;98303.84;5099914;28;19924;-77
2023/01/14 04:45:53;;;;;;;;;;;;;;;7.59;100.00;98297.16;5098942;28;19924;-77
2023/01/14 04:48:20;;;;;;;;;;;;;;;7.55;100.00;98291.50;5099681;28;19925;-77
2023/01/14 04:50:47;;;;;;;;;;;;;;;7.53;100.00;98301.56;5120733;28;19920;-77
2023/01/14 04:53:15;;;;;;;;;;;;;;;7.54;100.00;98297.06;5101904;28;19927;-77
2023/01/14 04:55:45;;;;;;;;;;;;;;;7.64;100.00;98299.94;5090226;28;20616;-77
2023/01/14 04:58:12;;;;;;;;;;;;;;;7.63;100.00;98313.44;5098353;28;19931;-76
2023/01/14 05:00:39;;;;;;;;;;;;;;;7.42;100.00;98306.91;5100850;28;19928;-77
2023/01/14 05:03:07;;;;;;;;;;;;;;;7.44;100.00;98315.44;5101751;28;19956;-77
2023/01/14 05:05:33;;;;;;;;;;;;;;;7.61;100.00;98295.88;5116700;28;19972;-77
2023/01/14 05:08:00;;;;;;;;;;;;;;;7.62;100.00;98307.31;5115913;28;19924;-76
2023/01/14 05:10:27;;;;;;;;;;;;;;;7.50;100.00;98294.06;5117558;28;20630;-77
2023/01/14 05:12:58;;;;;;;;;;;;;;;7.45;100.00;98293.16;5101269;28;19983;-77
2023/01/14 05:15:25;;;;;;;;;;;;;;;7.40;100.00;98304.47;5100191;28;19930;-76
2023/01/14 05:17:51;;;;;;;;;;;;;;;7.37;100.00;98293.50;5097356;28;19934;-77
2023/01/14 05:20:18;;;;;;;;;;;;;;;7.49;100.00;98296.94;5097684;28;19930;-76
2023/01/14 05:22:45;;;;;;;;;;;;;;;7.44;100.00;98299.50;5118929;28;19985;-76
2023/01/14 05:25:11;;;;;;;;;;;;;;;7.51;100.00;98302.84;5092873;28;19924;-77
2023/01/14 05:27:37;;;;;;;;;;;;;;;7.44;100.00;98305.63;5115642;28;20493;-77
2023/01/14 05:30:06;;;;;;;;;;;;;;;7.63;100.00;98290.34;5097437;28;19924;-77
2023/01/14 05:32:32;;;;;;;;;;;;;;;7.69;100.00;98293.91;5117840;28;19924;-77
2023/01/14 05:34:59;;;;;;;;;;;;;;;7.70;100.00;98300.84;5100742;28;20068;-77
2023/01/14 05:37:25;;;;;;;;;;;;;;;7.68;100.00;98297.59;5099322;28;19953;-77
2023/01/14 05:39:52;;;;;;;;;;;;;;;7.67;100.00;98299.47;5096958;28;19924;-77
2023/01/14 05:47:48;;;;;;;;;;;;;;;7.72;100.00;98315.50;5130703;27;19928;-77
2023/01/14 05:50:15;;;;;;;;;;;;;;;7.65;100.00;98317.47;5096415;28;19950;-76
2023/01/14 05:52:41;;;;;;;;;;;;;;;7.70;100.00;98320.28;5096925;28;19924;-77
2023/01/14 05:55:08;;;;;;;;;;;;;;;7.83;100.00;98319.19;5088493;28;20667;-77
2023/01/14 05:57:34;;;;;;;;;;;;;;;7.89;100.00;98320.91;5114870;28;19924;-77
2023/01/14 06:00:01;;;;;;;;;;;;;;;7.84;100.00;98318.13;5096335;28;19930;-77
2023/01/14 06:07:53;;;;;;;;;;;;;;;7.79;100.00;98334.81;5058837;28;20231;-77
2023/01/14 06:10:24;;;;;;;;;;;;;;;7.78;100.00;98335.03;5114760;28;20536;-77
2023/01/14 06:13:04;;;;;;;;;;;;;;;7.62;100.00;98325.94;5117600;28;19941;-76
2023/01/14 06:15:35;;;;;;;;;;;;;;;7.62;100.00;98328.59;5097271;28;20069;-77
2023/01/14 06:18:13;;;;;;;;;;;;;;;7.51;100.00;98322.25;5095517;28;19935;-77
2023/01/14 06:20:42;;;;;;;;;;;;;;;7.66;100.00;98339.56;5117628;28;19923;-77
2023/01/14 06:23:09;;;;;;;;;;;;;;;7.49;100.00;98334.94;5099277;28;19931;-76
2023/01/14 06:25:36;;;;;;;;;;;;;;;7.39;100.00;98331.28;5088352;28;19992;-77
2023/01/14 06:28:02;;;;;;;;;;;;;;;7.34;100.00;98331.97;5096271;28;19924;-77
2023/01/14 06:30:29;;;;;;;;;;;;;;;7.28;100.00;98324.09;5116140;28;19947;-78
2023/01/14 06:32:56;;;;;;;;;;;;;;;7.39;100.00;98321.47;5117827;28;20004;-77
2023/01/14 06:35:23;;;;;;;;;;;;;;;7.39;100.00;98324.13;5099046;28;19924;-77
2023/01/14 06:37:51;;;;;;;;;;;;;;;7.41;100.00;98327.34;5096311;28;19935;-78
2023/01/14 06:40:17;;;;;;;;;;;;;;;7.44;100.00;98331.38;5115391;28;19924;-78
2023/01/14 06:42:44;;;;;;;;;;;;;;;7.47;100.00;98326.41;5100557;28;19931;-77
2023/01/14 06:45:11;;;;;;;;;;;;;;;7.47;100.00;98325.59;5100685;28;19966;-77
2023/01/14 06:47:38;;;;;;;;;;;;;;;7.42;100.00;98334.28;5097392;28;19951;-77
2023/01/14 06:50:04;;;;;;;;;;;;;;;7.49;100.00;98342.94;5096824;28;19942;-78
2023/01/14 06:52:31;;;;;;;;;;;;;;;7.49;100.00;98337.63;5116766;28;19920;-78
2023/01/14 06:54:58;;;;;;;;;;;;;;;7.44;100.00;98337.50;5112044;28;20644;-78
2023/01/14 06:57:25;;;;;;;;;;;;;;;7.52;100.00;98339.03;5089540;28;19924;-78
2023/01/14 06:59:51;;;;;;;;;;;;;;;7.59;100.00;98345.00;5118137;28;19927;-78
2023/01/14 07:02:18;;;;;;;;;;;;;;;7.45;100.00;98343.63;5099239;28;19923;-78
2023/01/14 07:04:44;;;;;;;;;;;;;;;7.48;100.00;98338.66;5095855;28;19946;-78
2023/01/14 07:07:11;;;;;;;;;;;;;;;7.34;100.00;98331.16;5095815;28;19983;-78
2023/01/14 07:09:38;;;;;;;;;;;;;;;7.35;100.00;98333.59;5117340;28;19962;-77
2023/01/14 07:12:06;;;;;;;;;;;;;;;7.25;100.00;98336.00;5099954;28;19959;-78
2023/01/14 07:14:32;;;;;;;;;;;;;;;7.25;100.00;98328.03;5097601;28;19920;-77
2023/01/14 07:16:59;;;;;;;;;;;;;;;7.38;100.00;98316.38;5096240;28;19947;-78
2023/01/14 07:19:25;;;;;;;;;;;;;;;7.49;100.00;98319.00;5098964;28;19959;-76
2023/01/14 07:21:51;;;;;;;;;;;;;;;7.59;100.00;98324.56;5101530;28;19979;-78
2023/01/14 07:24:18;;;;;;;;;;;;;;;7.60;100.00;98330.69;5096546;28;19924;-77
2023/01/14 07:26:44;;;;;;;;;;;;;;;7.65;100.00;98325.47;5114955;28;19912;-78
2023/01/14 07:29:12;;;;;;;;;;;;;;;7.54;100.00;98318.31;5137869;27;19920;-77
2023/01/14 07:31:38;;;;;;;;;;;;;;;7.56;100.00;98319.69;5099476;28;19928;-77
2023/01/14 07:34:05;;;;;;;;;;;;;;;7.70;100.00;98324.78;5099893;28;20038;-77
2023/01/14 07:36:31;;;;;;;;;;;;;;;7.63;100.00;98314.25;5119844;28;19920;-78
2023/01/14 07:38:58;;;;;;;;;;;;;;;7.42;100.00;98313.03;5121074;28;19927;-77
2023/01/14 07:41:24;;;;;;;;;;;;;;;7.31;100.00;98321.81;5119505;28;19924;-76
2023/01/14 07:43:50;;;;;;;;;;;;;;;7.28;100.00;98310.81;5117215;28;19925;-76
2023/01/14 07:46:18;;;;;;;;;;;;;;;7.12;100.00;98306.22;5099124;28;19995;-76
2023/01/14 07:48:45;;;;;;;;;;;;;;;7.13;100.00;98313.94;5121049;28;19924;-76
2023/01/14 07:51:12;;;;;;;;;;;;;;;6.81;100.00;98310.00;5102543;28;19924;-76
2023/01/14 07:53:38;;;;;;;;;;;;;;;6.75;100.00;98313.56;5099167;28;19924;-76
2023/01/14 07:56:05;;;;;;;;;;;;;;;6.50;100.00;98298.63;5090242;28;19959;-77
2023/01/14 07:58:32;;;;;;;;;;;;;;;6.52;100.00;98295.75;5101554;28;20014;-77
2023/01/14 08:00:59;;;;;;;;;;;;;;;6.38;100.00;98300.44;5120915;28;19923;-76
2023/01/14 08:03:26;;;;;;;;;;;;;;;6.26;100.00;98294.31;5119768;28;19942;-77
2023/01/14 08:05:53;;;;;;;;;;;;;;;6.37;100.00;98298.84;5098381;28;19920;-77
2023/01/14 08:08:19;;;;;;;;;;;;;;;6.24;100.00;98298.22;5099040;28;19956;-77
2023/01/14 08:10:46;;;;;;;;;;;;;;;6.09;100.00;98301.28;5101864;28;19924;-77
2023/01/14 08:13:12;;;;;;;;;;;;;;;6.08;100.00;98296.19;5101921;28;19924;-77
2023/01/14 08:15:39;;;;;;;;;;;;;;;6.06;100.00;98288.47;5098812;28;19924;-77
2023/01/14 08:18:05;;;;;;;;;;;;;;;6.22;100.00;98285.16;5097999;28;20793;-76
2023/01/14 08:20:33;;;;;;;;;;;;;;;6.35;100.00;98297.44;5118423;28;19950;-76
2023/01/14 08:22:59;;;;;;;;;;;;;;;6.32;100.00;98290.75;5120126;28;19924;-75
2023/01/14 08:25:26;;;;;;;;;;;;;;;6.61;100.00;98285.63;5109881;28;19970;-77
2023/01/14 08:27:52;;;;;;;;;;;;;;;6.61;100.00;98288.28;5094651;28;20247;-76
2023/01/14 08:30:19;;;;;;;;;;;;;;;6.55;100.00;98290.00;5100752;28;19931;-76
2023/01/14 08:32:45;;;;;;;;;;;;;;;6.62;100.00;98285.41;5098355;28;19981;-77
2023/01/14 08:35:12;;;;;;;;;;;;;;;6.90;100.00;98279.44;5115683;28;19924;-76
2023/01/14 08:37:41;;;;;;;;;;;;;;;6.83;100.00;98276.06;5100537;28;19954;-76
2023/01/14 08:40:08;;;;;;;;;;;;;;;7.20;100.00;98279.31;5119397;28;19972;-76
2023/01/14 08:42:34;;;;;;;;;;;;;;;7.34;100.00;98270.84;5098416;28;19951;-76
2023/01/14 08:45:01;;;;;;;;;;;;;;;7.19;100.00;98264.41;5115650;28;19920;-76
2023/01/14 08:47:29;;;;;;;;;;;;;;;7.33;100.00;98261.28;5098899;28;20017;-77
2023/01/14 08:49:55;;;;;;;;;;;;;;;7.45;100.00;98246.13;5119522;28;20253;-77
2023/01/14 08:52:22;;;;;;;;;;;;;;;7.41;100.00;98250.28;5099867;28;19945;-77
2023/01/14 08:54:49;;;;;;;;;;;;;;;7.02;100.00;98248.38;5091971;28;20165;-76
2023/01/14 08:57:16;;;;;;;;;;;;;;;6.67;100.00;98244.91;5090084;28;19927;-77
2023/01/14 08:59:42;;;;;;;;;;;;;;;6.56;100.00;98240.41;5108624;28;19927;-78
2023/01/14 09:02:12;;;;;;;;;;;;;;;6.67;100.00;98234.28;5098918;28;19935;-76
2023/01/14 09:04:41;;;;;;;;;;;;;;;6.51;100.00;98225.97;5108538;28;19920;-77
2023/01/14 09:18:08;;;;;;;;;;;;;;;6.94;100.00;98235.44;5099675;28;19928;-78
2023/01/14 09:20:36;;;;;;;;;;;;;;;6.98;100.00;98229.44;5101898;28;19924;-76
2023/01/14 09:23:04;;;;;;;;;;;;;;;6.93;100.00;98229.31;5101069;28;19920;-78
2023/01/14 09:25:31;;;;;;;;;;;;;;;7.05;100.00;98224.84;5090234;28;19999;-77
2023/01/14 09:27:58;;;;;;;;;;;;;;;7.32;100.00;98230.44;5095185;28;19924;-77
2023/01/14 09:30:24;;;;;;;;;;;;;;;7.37;100.00;98221.75;5100798;28;19974;-77
2023/01/14 09:32:51;;;;;;;;;;;;;;;7.44;100.00;98233.88;5097436;28;19920;-76
2023/01/14 09:35:18;;;;;;;;;;;;;;;7.48;100.00;98237.69;5116145;28;19962;-77
2023/01/14 09:37:44;;;;;;;;;;;;;;;7.38;100.00;98232.16;5100193;28;20591;-77
2023/01/14 09:40:12;;;;;;;;;;;;;;;7.48;100.00;98224.41;5118422;28;19931;-77
2023/01/14 09:42:42;;;;;;;;;;;;;;;7.48;100.00;98231.56;5115832;28;19927;-77
2023/01/14 09:45:13;;;;;;;;;;;;;;;7.35;100.00;98222.00;5097180;28;19940;-77
2023/01/14 09:47:39;;;;;;;;;;;;;;;7.41;100.00;98214.94;5118489;28;19923;-77
2023/01/14 09:50:08;;;;;;;;;;;;;;;7.52;100.00;98214.13;5100706;28;19931;-78
2023/01/14 09:52:47;;;;;;;;;;;;;;;7.57;100.00;98204.38;5116364;28;19935;-77
2023/01/14 09:55:17;;;;;;;;;;;;;;;7.60;100.00;98209.22;5109676;28;20127;-77
2023/01/14 09:57:48;;;;;;;;;;;;;;;7.71;100.00;98202.25;5096855;28;19982;-77
2023/01/14 10:00:25;;;;;;;;;;;;;;;7.67;100.00;98202.97;5096725;28;19963;-76
2023/01/14 10:02:56;;;;;;;;;;;;;;;7.63;100.00;98193.84;5106694;28;19935;-76
2023/01/14 10:05:27;;;;;;;;;;;;;;;7.64;100.00;98188.31;5088297;28;19924;-77
2023/01/14 10:07:55;;;;;;;;;;;;;;;7.73;100.00;98181.56;5088904;28;19939;-77
2023/01/14 10:10:24;;;;;;;;;;;;;;;7.71;100.00;98172.19;5096862;28;19924;-77
2023/01/14 10:12:54;;;;;;;;;;;;;;;7.77;100.00;98174.69;5106940;28;19967;-77
2023/01/14 10:15:28;;;;;;;;;;;;;;;7.71;100.00;98165.03;5097364;28;19920;-77
2023/01/14 10:17:57;;;;;;;;;;;;;;;7.73;100.00;98159.47;5097730;28;19984;-77
2023/01/14 10:20:28;;;;;;;;;;;;;;;7.70;100.00;98151.97;5101241;28;20003;-77
2023/01/14 10:22:58;;;;;;;;;;;;;;;7.61;100.00;98157.66;5122131;28;19920;-77
2023/01/14 10:25:25;;;;;;;;;;;;;;;7.77;100.00;98153.44;5093624;28;19952;-77
2023/01/14 10:27:54;;;;;;;;;;;;;;;7.65;100.00;98143.91;5096280;28;19983;-77
2023/01/14 10:30:23;;;;;;;;;;;;;;;7.87;100.00;98139.50;5119954;28;19924;-77
2023/01/14 10:32:51;;;;;;;;;;;;;;;7.88;100.00;98127.84;5099127;28;19991;-78
2023/01/14 10:35:22;;;;;;;;;;;;;;;7.74;100.00;98127.31;5116544;28;20149;-77
2023/01/14 10:37:49;;;;;;;;;;;;;;;7.93;100.00;98114.63;5100719;28;19923;-77
2023/01/14 10:40:20;;;;;;;;;;;;;;;7.82;100.00;98110.19;5100496;28;19924;-78
2023/01/14 10:42:47;;;;;;;;;;;;;;;7.73;100.00;98114.28;5088716;28;19924;-78
2023/01/14 10:45:15;;;;;;;;;;;;;;;8.08;100.00;98105.03;5088286;28;20308;-78
2023/01/14 10:47:43;;;;;;;;;;;;;;;7.89;100.00;98108.19;5088657;28;19935;-77
2023/01/14 10:50:17;;;;;;;;;;;;;;;7.98;100.00;98106.75;5093315;28;19924;-77
2023/01/14 10:52:47;;;;;;;;;;;;;;;8.11;100.00;98093.91;5097737;28;19943;-77
2023/01/14 10:55:16;;;;;;;;;;;;;;;8.13;100.00;98093.69;5091270;28;19969;-78
2023/01/14 10:57:46;;;;;;;;;;;;;;;7.84;100.00;98086.81;5098756;28;19924;-77
2023/01/14 11:00:29;;;;;;;;;;;;;;;8.12;100.00;98076.91;5119068;28;19921;-78
2023/01/14 11:02:57;;;;;;;;;;;;;;;8.05;100.00;98076.25;5103337;28;19931;-77
2023/01/14 11:05:26;;;;;;;;;;;;;;;8.26;100.00;98064.09;5120985;28;19924;-77
2023/01/14 11:07:54;;;;;;;;;;;;;;;8.08;100.00;98061.66;5104157;28;19941;-77
2023/01/14 11:10:23;;;;;;;;;;;;;;;8.19;100.00;98044.84;5103776;28;19931;-78
2023/01/14 11:12:50;;;;;;;;;;;;;;;8.12;100.00;98049.50;5101778;28;19928;-78
2023/01/14 11:15:34;;;;;;;;;;;;;;;8.15;100.00;98041.03;5119403;28;19954;-77
2023/01/14 11:18:15;;;;;;;;;;;;;;;8.21;100.00;98034.75;5103946;28;20744;-77
2023/01/14 11:20:42;;;;;;;;;;;;;;;8.23;100.00;98029.19;5100431;28;19942;-77
2023/01/14 11:23:14;;;;;;;;;;;;;;;8.33;100.00;98032.81;5100030;28;19970;-77
2023/01/14 11:25:41;;;;;;;;;;;;;;;8.32;100.00;98020.56;5093492;28;19924;-76
2023/01/14 11:28:08;;;;;;;;;;;;;;;8.14;100.00;98023.47;5099457;28;19935;-76
2023/01/14 11:30:36;;;;;;;;;;;;;;;8.08;100.00;98009.28;5120088;28;19931;-76
2023/01/14 11:33:02;;;;;;;;;;;;;;;8.36;100.00;98011.03;5102928;28;19924;-77
2023/01/14 11:35:30;;;;;;;;;;;;;;;8.23;100.00;98005.25;5119792;28;19925;-77
2023/01/14 11:37:57;;;;;;;;;;;;;;;8.34;100.00;97997.19;5099516;28;19932;-77
2023/01/14 11:41:28;;;;;;;;;;;;;;;8.45;100.00;97976.81;5100264;28;19925;-77
2023/01/14 11:43:11;;;;;;;;;;;;;;;8.36;100.00;97973.78;5102843;28;19947;-77
2023/01/14 11:45:39;;;;;;;;;;;;;;;8.44;100.00;97977.88;5099468;28;19924;-77
2023/01/14 11:48:22;;;;;;;;;;;;;;;8.37;100.00;97967.41;5099887;28;19963;-76
2023/01/14 11:50:56;;;;;;;;;;;;;;;8.46;100.00;97973.91;5099609;28;19950;-76
2023/01/14 11:53:26;;;;;;;;;;;;;;;8.43;100.00;97969.09;5118423;28;19954;-77
2023/01/14 11:55:54;;;;;;;;;;;;;;;8.46;100.00;97957.13;5091890;28;19930;-77
2023/01/14 11:58:21;;;;;;;;;;;;;;;8.48;100.00;97950.50;5118285;28;19924;-77
2023/01/14 12:00:52;;;;;;;;;;;;;;;8.44;100.00;97941.44;5121441;28;19938;-77
2023/01/14 12:03:24;;;;;;;;;;;;;;;8.47;100.00;97940.13;5120951;28;19927;-77
2023/01/14 12:05:53;;;;;;;;;;;;;;;8.49;100.00;97930.03;5098958;28;19955;-78
2023/01/14 12:08:22;;;;;;;;;;;;;;;8.57;100.00;97926.94;5099412;28;19929;-77
2023/01/14 12:10:50;;;;;;;;;;;;;;;8.51;100.00;97919.94;5102299;28;20074;-77
2023/01/14 12:18:55;;;;;;;;;;;;;;;8.38;100.00;97910.50;5131528;27;19924;-77
2023/01/14 12:21:25;;;;;;;;;;;;;;;8.58;100.00;97900.06;5099423;28;19977;-78
2023/01/14 12:23:56;;;;;;;;;;;;;;;8.59;100.00;97899.00;5099367;28;19955;-77
2023/01/14 12:26:25;;;;;;;;;;;;;;;8.60;100.00;97881.19;5108233;28;19931;-77
2023/01/14 12:28:56;;;;;;;;;;;;;;;8.62;100.00;97890.53;5100919;28;19945;-77
2023/01/14 12:31:26;;;;;;;;;;;;;;;8.65;100.00;97870.56;5100078;28;19923;-76
2023/01/14 12:33:55;;;;;;;;;;;;;;;8.64;100.00;97869.78;5097908;28;19947;-78
2023/01/14 12:36:23;;;;;;;;;;;;;;;8.61;100.00;97864.13;5098398;28;19974;-78
2023/01/14 12:47:17;;;;;;;;;;;;;;;8.60;100.00;97867.88;5134322;27;19937;-76
2023/01/14 12:49:44;;;;;;;;;;;;;;;8.57;100.00;97863.84;5098561;28;19928;-77
2023/01/14 12:52:11;;;;;;;;;;;;;;;8.59;100.00;97869.72;5100824;28;19931;-77
2023/01/14 12:54:38;;;;;;;;;;;;;;;8.64;100.00;97859.13;5115546;28;19924;-77
2023/01/14 12:57:07;;;;;;;;;;;;;;;8.63;100.00;97848.75;5089183;28;19924;-77
2023/01/14 12:59:35;;;;;;;;;;;;;;;8.63;100.00;97836.22;5118003;28;19931;-77
2023/01/14 13:02:03;;;;;;;;;;;;;;;8.64;100.00;97837.81;5119053;28;19962;-78
2023/01/14 13:04:35;;;;;;;;;;;;;;;8.67;100.00;97829.34;5098842;28;19934;-77
2023/01/14 13:07:02;;;;;;;;;;;;;;;8.61;100.00;97817.03;5096806;28;19988;-77
2023/01/14 13:09:31;;;;;;;;;;;;;;;8.67;100.00;97820.53;5117074;28;19924;-76
2023/01/14 13:11:58;;;;;;;;;;;;;;;8.70;100.00;97825.34;5100945;28;20024;-77
2023/01/14 13:14:34;;;;;;;;;;;;;;;8.72;100.00;97803.81;5117977;28;19931;-77
2023/01/14 13:17:01;;;;;;;;;;;;;;;8.69;100.00;97791.81;5097404;28;19924;-77
2023/01/14 13:19:36;;;;;;;;;;;;;;;8.72;100.00;97782.53;5117136;28;19920;-78
2023/01/14 13:22:03;;;;;;;;;;;;;;;8.69;100.00;97775.84;5100412;28;19924;-77
2023/01/14 13:24:33;;;;;;;;;;;;;;;8.71;100.00;97773.72;5094915;28;19931;-76
2023/01/14 13:27:01;;;;;;;;;;;;;;;8.69;100.00;97770.53;5090496;28;19969;-78
2023/01/14 13:29:28;;;;;;;;;;;;;;;8.65;100.00;97766.75;5107808;28;19942;-77
2023/01/14 13:31:55;;;;;;;;;;;;;;;8.68;100.00;97768.91;5121130;28;19919;-77
2023/01/14 13:34:46;;;;;;;;;;;;;;;8.68;100.00;97769.72;5102625;28;19924;-78
2023/01/14 13:37:24;;;;;;;;;;;;;;;8.70;100.00;97764.13;5115917;28;19919;-78
2023/01/14 13:39:52;;;;;;;;;;;;;;;8.70;100.00;97760.69;5096898;28;19958;-77